Time;durP1;ratioP1;P1;durP2;ratioP2;P2;SDS_P1;SDS_P2;PMS_P1;PMS_P2;Temp;Humidity;BMP_temperature;BMP_pressure;BME280_temperature;BME280_humidity;BME280_pressure;Samples;Min_cycle;Max_cycle;Signal;HPM_P1;HPM_P2
2023/05/31 00:01:14;;;;;;;1.92;1.40;;;17.70;99.90;;;;;;5063116;28;20663;-90
2023/05/31 00:03:46;;;;;;;2.33;1.73;;;17.90;99.90;;;;;;5075713;28;20195;-90
2023/05/31 00:06:18;;;;;;;3.03;1.52;;;17.90;99.90;;;;;;5056961;28;20223;-90
2023/05/31 00:08:51;;;;;;;2.53;1.60;;;17.90;99.90;;;;;;5053247;28;20224;-90
2023/05/31 00:11:26;;;;;;;1.83;1.45;;;17.90;99.90;;;;;;5054017;28;20228;-90
2023/05/31 00:13:59;;;;;;;2.83;1.60;;;18.00;99.90;;;;;;5066153;28;20253;-90
2023/05/31 00:16:34;;;;;;;3.08;1.40;;;18.10;99.90;;;;;;5074893;28;20204;-91
2023/05/31 00:19:06;;;;;;;2.83;1.42;;;18.20;99.90;;;;;;5066288;28;20204;-90
2023/05/31 00:21:37;;;;;;;2.90;1.40;;;18.30;99.90;;;;;;5053227;28;20322;-90
2023/05/31 00:24:12;;;;;;;3.10;1.50;;;18.40;99.90;;;;;;5053235;28;20215;-90
2023/05/31 00:26:44;;;;;;;2.50;1.23;;;18.50;99.90;;;;;;5053061;28;20208;-90
2023/05/31 00:29:16;;;;;;;2.90;1.30;;;18.60;99.90;;;;;;5061521;28;20203;-91
2023/05/31 00:31:52;;;;;;;2.47;1.17;;;18.60;99.90;;;;;;5053591;28;20636;-91
2023/05/31 00:34:24;;;;;;;2.60;1.30;;;18.70;99.90;;;;;;5061630;28;20184;-91
2023/05/31 00:36:55;;;;;;;3.13;1.05;;;18.80;99.90;;;;;;5089001;28;20195;-90
2023/05/31 00:39:27;;;;;;;1.35;0.93;;;18.80;99.90;;;;;;5060475;28;20205;-91
2023/05/31 00:42:02;;;;;;;2.17;1.23;;;18.80;99.90;;;;;;5053802;28;20201;-92
2023/05/31 00:44:34;;;;;;;2.40;1.02;;;18.90;99.90;;;;;;5054070;28;20199;-91
2023/05/31 00:47:09;;;;;;;2.22;1.25;;;19.00;99.90;;;;;;5068089;28;20540;-91
2023/05/31 00:49:40;;;;;;;1.15;0.90;;;19.00;99.90;;;;;;5067783;28;20226;-91
2023/05/31 00:52:14;;;;;;;1.45;0.77;;;19.10;99.90;;;;;;5058285;28;20199;-91
2023/05/31 00:54:47;;;;;;;2.13;0.80;;;19.30;99.90;;;;;;5074437;28;20184;-91
2023/05/31 00:57:19;;;;;;;1.15;0.90;;;19.40;99.90;;;;;;5076401;28;20169;-84
2023/05/31 00:59:52;;;;;;;1.55;0.80;;;19.50;99.90;;;;;;5074787;28;20203;-91
2023/05/31 01:02:25;;;;;;;2.38;0.77;;;19.60;99.90;;;;;;5074095;28;20187;-90
2023/05/31 01:04:57;;;;;;;4.20;0.90;;;19.70;99.90;;;;;;5073734;28;20209;-91
2023/05/31 01:07:28;;;;;;;1.20;0.90;;;19.80;99.90;;;;;;5073883;28;20196;-90
2023/05/31 01:10:00;;;;;;;1.45;0.80;;;19.80;99.90;;;;;;5059591;28;20236;-90
2023/05/31 01:12:37;;;;;;;1.20;1.00;;;19.80;99.90;;;;;;5053871;28;20210;-90
2023/05/31 01:15:17;;;;;;;1.80;1.00;;;19.90;99.90;;;;;;5078960;28;20203;-90
2023/05/31 01:18:00;;;;;;;1.52;0.90;;;19.90;99.90;;;;;;5076954;28;20196;-91
2023/05/31 01:20:35;;;;;;;1.10;1.00;;;20.00;99.90;;;;;;5075419;28;20203;-91
2023/05/31 01:23:22;;;;;;;2.45;1.02;;;20.10;99.90;;;;;;5075291;28;20662;-90
2023/05/31 01:26:25;;;;;;;1.45;1.00;;;20.20;99.90;;;;;;5083191;28;20200;-90
2023/05/31 01:28:58;;;;;;;2.05;1.23;;;20.20;99.90;;;;;;5078809;28;20204;-90
2023/05/31 01:31:34;;;;;;;4.45;1.42;;;20.40;99.90;;;;;;5075940;28;20719;-91
2023/05/31 01:34:07;;;;;;;2.00;1.30;;;20.30;99.90;;;;;;5070569;28;20208;-91
2023/05/31 01:36:40;;;;;;;2.72;1.58;;;20.20;99.90;;;;;;5068785;28;20200;-91
2023/05/31 01:39:13;;;;;;;2.20;1.42;;;20.30;99.90;;;;;;5074064;28;20218;-90
2023/05/31 01:41:52;;;;;;;2.25;1.40;;;20.40;99.90;;;;;;5076993;28;20200;-90
2023/05/31 01:44:23;;;;;;;1.85;1.23;;;20.50;99.90;;;;;;5078556;28;20200;-91
2023/05/31 01:46:56;;;;;;;3.13;1.30;;;20.70;99.90;;;;;;5075643;28;20235;-90
2023/05/31 01:49:29;;;;;;;2.05;1.35;;;20.80;99.90;;;;;;5057260;28;20208;-90
2023/05/31 01:52:03;;;;;;;1.67;1.25;;;20.90;99.90;;;;;;5058737;28;20208;-90
2023/05/31 01:54:34;;;;;;;2.33;0.88;;;20.80;99.90;;;;;;5066833;28;20207;-90
2023/05/31 01:57:10;;;;;;;3.22;1.10;;;20.80;99.90;;;;;;5075716;28;20199;-90
2023/05/31 01:59:42;;;;;;;2.17;1.10;;;20.80;99.90;;;;;;5057785;28;20286;-90
2023/05/31 02:02:14;;;;;;;2.60;1.02;;;20.90;99.90;;;;;;5056880;28;20196;-90
2023/05/31 02:04:45;;;;;;;1.88;1.00;;;20.80;99.90;;;;;;5057758;28;20222;-90
2023/05/31 02:07:21;;;;;;;1.50;1.10;;;20.80;99.90;;;;;;5057594;28;20220;-90
2023/05/31 02:09:52;;;;;;;3.47;1.10;;;20.70;99.90;;;;;;5057544;28;20585;-90
2023/05/31 02:12:27;;;;;;;2.20;1.23;;;20.70;99.90;;;;;;5078712;28;20214;-89
2023/05/31 02:14:59;;;;;;;3.08;1.00;;;20.60;99.90;;;;;;5078041;28;20200;-91
2023/05/31 02:17:32;;;;;;;1.58;1.17;;;20.50;99.90;;;;;;5068201;28;20207;-92
2023/05/31 02:20:07;;;;;;;1.50;0.90;;;20.60;99.90;;;;;;5056555;28;20633;-91
2023/05/31 02:22:40;;;;;;;1.92;0.98;;;20.60;99.90;;;;;;5071075;28;20191;-91
2023/05/31 02:25:14;;;;;;;1.10;0.70;;;20.60;99.90;;;;;;5077235;28;20200;-91
2023/05/31 02:27:48;;;;;;;0.70;0.70;;;20.60;99.90;;;;;;5077572;28;20274;-89
2023/05/31 02:30:20;;;;;;;1.65;0.70;;;20.60;99.90;;;;;;5076725;28;20232;-90
2023/05/31 02:32:51;;;;;;;0.80;0.70;;;20.60;99.90;;;;;;5077481;28;20195;-90
2023/05/31 02:35:23;;;;;;;1.00;0.80;;;20.70;99.90;;;;;;5058813;28;20208;-90
2023/05/31 02:37:55;;;;;;;1.08;0.60;;;20.60;99.90;;;;;;5070816;28;20264;-90
2023/05/31 02:40:26;;;;;;;0.90;0.70;;;20.60;99.90;;;;;;5082556;28;20200;-90
2023/05/31 02:43:00;;;;;;;1.30;0.70;;;20.70;99.90;;;;;;5078604;28;20203;-90
2023/05/31 02:45:34;;;;;;;0.90;0.88;;;20.60;99.90;;;;;;5076937;28;20573;-91
2023/05/31 02:48:05;;;;;;;1.45;0.70;;;20.50;99.90;;;;;;5076342;28;20254;-91
2023/05/31 02:50:40;;;;;;;1.10;0.70;;;20.60;99.90;;;;;;5079107;28;20242;-90
2023/05/31 02:53:20;;;;;;;1.60;0.90;;;20.60;99.90;;;;;;5078479;28;20187;-91
2023/05/31 02:55:55;;;;;;;2.63;0.90;;;20.60;99.90;;;;;;5076865;28;20283;-90
2023/05/31 02:58:36;;;;;;;1.58;0.90;;;20.60;99.90;;;;;;5077367;28;20209;-91
2023/05/31 03:01:08;;;;;;;2.45;0.80;;;20.70;99.90;;;;;;5081982;28;20204;-91
2023/05/31 03:03:40;;;;;;;1.38;0.65;;;20.50;99.90;;;;;;5075134;28;20223;-91
2023/05/31 03:06:19;;;;;;;2.28;0.90;;;20.50;99.90;;;;;;5076219;28;20203;-91
2023/05/31 03:08:53;;;;;;;0.88;0.80;;;20.60;99.90;;;;;;5074798;28;20303;-91
2023/05/31 03:11:26;;;;;;;1.65;1.08;;;20.60;99.90;;;;;;5077632;28;20219;-90
2023/05/31 03:14:01;;;;;;;1.25;0.82;;;20.60;99.90;;;;;;5076407;28;20220;-91
2023/05/31 03:16:33;;;;;;;1.50;0.90;;;20.60;99.90;;;;;;5076647;28;20199;-89
2023/05/31 03:19:05;;;;;;;1.45;0.90;;;20.70;99.90;;;;;;5077947;28;20621;-89
2023/05/31 03:21:38;;;;;;;0.70;0.70;;;20.80;99.90;;;;;;5076258;28;20278;-90
2023/05/31 03:24:10;;;;;;;1.30;0.80;;;20.80;99.90;;;;;;5076350;28;20282;-90
2023/05/31 03:26:42;;;;;;;1.00;0.75;;;20.80;99.90;;;;;;5075897;28;20196;-91
2023/05/31 03:29:15;;;;;;;2.42;0.73;;;20.80;99.90;;;;;;5075675;28;20202;-90
2023/05/31 03:31:46;;;;;;;0.73;0.73;;;20.80;99.90;;;;;;5075716;28;20223;-91
2023/05/31 03:34:18;;;;;;;0.80;0.80;;;20.90;99.90;;;;;;5077522;28;20192;-90
2023/05/31 03:36:50;;;;;;;0.80;0.80;;;21.00;99.90;;;;;;5074932;28;20679;-90
2023/05/31 03:39:22;;;;;;;3.25;0.90;;;21.10;99.90;;;;;;5074871;28;20312;-90
2023/05/31 03:41:54;;;;;;;2.72;1.10;;;21.10;99.90;;;;;;5075485;28;20189;-90
2023/05/31 03:44:29;;;;;;;3.53;1.20;;;21.10;99.90;;;;;;5055108;28;20656;-90
2023/05/31 03:47:01;;;;;;;1.58;0.93;;;21.20;99.90;;;;;;5054591;28;20193;-90
2023/05/31 03:49:33;;;;;;;2.90;1.10;;;21.20;99.90;;;;;;5054432;28;20254;-90
2023/05/31 03:52:06;;;;;;;1.40;0.82;;;21.20;99.90;;;;;;5054494;28;20220;-90
2023/05/31 03:54:37;;;;;;;0.98;0.70;;;21.30;99.90;;;;;;5072011;28;20286;-90
2023/05/31 03:57:09;;;;;;;2.15;0.80;;;21.40;99.90;;;;;;5074593;28;20602;-91
2023/05/31 03:59:45;;;;;;;0.90;0.80;;;21.30;99.90;;;;;;5073777;28;20196;-91
2023/05/31 04:02:17;;;;;;;1.17;0.80;;;21.40;99.90;;;;;;5072490;28;20195;-91
2023/05/31 04:04:48;;;;;;;1.25;0.93;;;21.40;99.90;;;;;;5073515;28;20207;-91
2023/05/31 04:07:22;;;;;;;0.98;0.88;;;21.50;99.90;;;;;;5073861;28;20234;-91
2023/05/31 04:09:54;;;;;;;1.38;0.90;;;21.50;99.90;;;;;;5074089;28;20662;-91
2023/05/31 04:12:25;;;;;;;3.40;0.90;;;21.60;99.90;;;;;;5073607;28;20256;-91
2023/05/31 04:15:00;;;;;;;2.13;1.80;;;21.40;99.90;;;;;;5073579;28;20211;-90
2023/05/31 04:17:34;;;;;;;1.55;1.08;;;21.40;99.90;;;;;;5053768;28;21123;-90
2023/05/31 04:20:07;;;;;;;2.03;0.90;;;21.40;99.90;;;;;;5068268;28;20257;-91
2023/05/31 04:22:39;;;;;;;2.10;1.20;;;21.40;99.90;;;;;;5073486;28;20218;-91
2023/05/31 04:25:12;;;;;;;1.20;1.00;;;21.40;99.90;;;;;;5073365;28;20200;-91
2023/05/31 04:27:45;;;;;;;1.45;1.10;;;21.30;99.90;;;;;;5075264;28;20299;-90
2023/05/31 04:30:20;;;;;;;2.17;0.90;;;21.30;99.90;;;;;;5073746;28;20231;-90
2023/05/31 04:32:56;;;;;;;2.22;1.13;;;21.30;99.90;;;;;;5073376;28;20342;-90
2023/05/31 04:35:30;;;;;;;1.73;1.08;;;21.30;99.90;;;;;;5073912;28;20571;-90
2023/05/31 04:38:02;;;;;;;1.42;1.00;;;21.20;99.90;;;;;;5074104;28;20203;-90
2023/05/31 04:40:44;;;;;;;1.73;1.00;;;21.20;99.90;;;;;;5073624;28;20582;-90
2023/05/31 04:43:17;;;;;;;1.10;1.00;;;21.10;99.90;;;;;;5065590;28;20204;-90
2023/05/31 04:45:52;;;;;;;1.45;1.00;;;21.10;99.90;;;;;;5071845;28;20196;-90
2023/05/31 04:48:24;;;;;;;2.20;0.90;;;21.10;99.90;;;;;;5073696;28;20203;-90
2023/05/31 04:50:56;;;;;;;1.00;0.90;;;21.10;99.90;;;;;;5072882;28;20208;-91
2023/05/31 04:53:28;;;;;;;1.13;0.93;;;21.10;99.90;;;;;;5073521;28;20192;-91
2023/05/31 04:56:04;;;;;;;1.50;1.02;;;21.10;99.90;;;;;;5075303;28;20215;-90
2023/05/31 04:58:36;;;;;;;2.25;1.00;;;21.10;99.90;;;;;;5073482;28;20221;-91
2023/05/31 05:01:12;;;;;;;1.55;0.90;;;21.10;99.90;;;;;;5076219;28;20264;-91
2023/05/31 05:03:45;;;;;;;1.33;0.80;;;21.10;99.90;;;;;;5077770;28;20662;-91
2023/05/31 05:06:19;;;;;;;5.88;0.85;;;21.00;99.90;;;;;;5073847;28;20203;-91
2023/05/31 05:08:51;;;;;;;1.58;0.90;;;21.00;99.90;;;;;;5082165;28;20216;-90
2023/05/31 05:11:23;;;;;;;2.88;0.93;;;21.00;99.90;;;;;;5080512;28;20236;-91
2023/05/31 05:13:54;;;;;;;1.33;0.90;;;21.00;99.90;;;;;;5075956;28;20559;-91
2023/05/31 05:16:28;;;;;;;3.63;1.20;;;21.00;99.90;;;;;;5075262;28;20195;-91
2023/05/31 05:19:01;;;;;;;2.03;0.95;;;20.90;99.90;;;;;;5071277;28;20192;-91
2023/05/31 05:21:33;;;;;;;2.00;1.00;;;20.90;99.90;;;;;;5077446;28;20266;-90
2023/05/31 05:24:05;;;;;;;4.93;1.15;;;20.90;99.90;;;;;;5081316;28;20247;-91
2023/05/31 05:26:38;;;;;;;2.47;0.93;;;20.80;99.90;;;;;;5058531;28;20203;-90
2023/05/31 05:29:11;;;;;;;1.30;0.88;;;20.80;99.90;;;;;;5059261;28;20201;-91
2023/05/31 05:31:47;;;;;;;3.17;0.82;;;20.80;99.90;;;;;;5060832;28;20231;-91
2023/05/31 05:34:19;;;;;;;1.02;0.93;;;20.80;99.90;;;;;;5064892;28;20192;-91
2023/05/31 05:36:51;;;;;;;2.47;0.82;;;20.70;99.90;;;;;;5077158;28;20605;-91
2023/05/31 05:39:23;;;;;;;1.67;1.00;;;20.70;99.90;;;;;;5077442;28;20227;-91
2023/05/31 05:41:56;;;;;;;2.85;1.00;;;20.70;99.90;;;;;;5077489;28;20196;-91
2023/05/31 05:44:30;;;;;;;3.38;1.10;;;20.70;99.90;;;;;;5076986;28;20196;-89
2023/05/31 05:47:06;;;;;;;2.40;1.00;;;20.60;99.90;;;;;;5060770;28;20199;-90
2023/05/31 05:49:38;;;;;;;2.65;1.30;;;20.60;99.90;;;;;;5057193;28;20254;-91
2023/05/31 05:52:10;;;;;;;2.83;1.20;;;20.60;99.90;;;;;;5056870;28;20224;-91
2023/05/31 05:54:41;;;;;;;2.28;1.58;;;20.60;99.90;;;;;;5056701;28;20196;-90
2023/05/31 05:57:13;;;;;;;2.60;1.05;;;20.70;99.90;;;;;;5059033;28;20211;-91
2023/05/31 05:59:44;;;;;;;1.58;1.00;;;20.80;99.90;;;;;;5057597;28;20205;-91
2023/05/31 06:02:20;;;;;;;1.38;0.90;;;20.80;99.90;;;;;;5062234;28;20200;-92
2023/05/31 06:04:52;;;;;;;1.80;1.00;;;20.80;99.90;;;;;;5069507;28;20199;-92
2023/05/31 06:07:25;;;;;;;2.25;1.10;;;20.90;99.90;;;;;;5076943;28;20425;-91
2023/05/31 06:10:02;;;;;;;3.00;0.95;;;20.90;99.90;;;;;;5073825;28;20200;-92
2023/05/31 06:12:37;;;;;;;2.58;1.27;;;20.90;99.90;;;;;;5078599;28;20292;-91
2023/05/31 06:15:09;;;;;;;2.60;1.00;;;20.80;99.90;;;;;;5072021;28;20196;-90
2023/05/31 06:17:44;;;;;;;2.15;0.93;;;20.70;99.90;;;;;;5078928;28;20271;-91
2023/05/31 06:20:17;;;;;;;2.33;0.90;;;20.60;99.90;;;;;;5080066;28;20198;-91
2023/05/31 06:22:49;;;;;;;2.05;1.10;;;20.50;99.90;;;;;;5079426;28;20196;-91
2023/05/31 06:25:20;;;;;;;1.90;1.20;;;20.50;99.90;;;;;;5079216;28;20207;-91
2023/05/31 06:27:52;;;;;;;4.13;0.93;;;20.40;99.90;;;;;;5078059;28;20210;-91
2023/05/31 06:30:27;;;;;;;4.72;1.10;;;20.30;99.90;;;;;;5081051;28;20232;-92
2023/05/31 06:33:03;;;;;;;2.67;1.10;;;20.20;99.90;;;;;;5082008;28;20220;-91
2023/05/31 06:35:36;;;;;;;2.05;1.00;;;20.20;99.90;;;;;;5080122;28;20227;-91
2023/05/31 06:38:14;;;;;;;2.63;1.13;;;20.20;99.90;;;;;;5081569;28;20222;-90
2023/05/31 06:40:48;;;;;;;2.25;1.42;;;20.10;99.90;;;;;;5071992;28;20266;-90
2023/05/31 06:43:21;;;;;;;2.20;1.20;;;20.10;99.90;;;;;;5075614;28;20195;-90
2023/05/31 06:45:54;;;;;;;4.63;1.45;;;20.00;99.90;;;;;;5078510;28;20570;-90
2023/05/31 06:48:29;;;;;;;4.28;1.70;;;20.00;99.90;;;;;;5078032;28;20243;-91
2023/05/31 06:51:05;;;;;;;3.08;1.73;;;19.90;99.90;;;;;;5080371;28;20206;-90
2023/05/31 06:53:38;;;;;;;5.32;1.52;;;19.90;99.90;;;;;;5081330;28;20213;-91
2023/05/31 06:56:12;;;;;;;2.15;1.50;;;19.90;99.90;;;;;;5085835;28;20203;-91
2023/05/31 06:58:56;;;;;;;3.75;1.73;;;19.90;99.90;;;;;;5078505;28;20580;-90
2023/05/31 07:01:37;;;;;;;3.05;1.88;;;19.90;99.90;;;;;;5069266;28;20208;-90
2023/05/31 07:04:10;;;;;;;2.80;2.00;;;19.90;99.90;;;;;;5057074;28;20667;-90
2023/05/31 07:06:43;;;;;;;2.78;1.75;;;19.80;99.90;;;;;;5057713;28;20200;-89
2023/05/31 07:09:16;;;;;;;4.97;1.83;;;19.80;99.90;;;;;;5056776;28;20208;-90
2023/05/31 07:11:48;;;;;;;6.55;2.10;;;19.80;99.90;;;;;;5056779;28;20223;-89
2023/05/31 07:14:21;;;;;;;4.10;2.47;;;19.70;99.90;;;;;;5060597;28;20211;-89
2023/05/31 07:16:56;;;;;;;4.57;2.83;;;19.70;99.90;;;;;;5077690;28;20200;-90
2023/05/31 07:19:32;;;;;;;3.65;2.10;;;19.80;99.90;;;;;;5080162;28;20199;-90
2023/05/31 07:22:04;;;;;;;3.35;2.42;;;19.80;99.90;;;;;;5081966;28;20203;-90
2023/05/31 07:24:36;;;;;;;3.03;2.28;;;19.70;99.90;;;;;;5081127;28;20271;-90
2023/05/31 07:27:08;;;;;;;4.55;2.10;;;19.70;99.90;;;;;;5079050;28;20275;-91
2023/05/31 07:29:40;;;;;;;5.75;2.00;;;19.60;99.90;;;;;;5079391;28;20227;-90
2023/05/31 07:32:12;;;;;;;2.67;1.92;;;19.60;99.90;;;;;;5077731;28;20228;-90
2023/05/31 07:34:47;;;;;;;6.93;2.10;;;19.50;99.90;;;;;;5078268;28;20295;-91
2023/05/31 07:37:20;;;;;;;8.70;7.00;;;19.50;99.90;;;;;;5078405;28;20201;-91
2023/05/31 07:39:52;;;;;;;20.55;16.23;;;19.50;99.90;;;;;;5078257;28;20196;-91
2023/05/31 07:42:24;;;;;;;24.65;20.27;;;19.40;99.90;;;;;;5068801;28;20202;-90
2023/05/31 07:44:58;;;;;;;28.92;24.30;;;19.30;99.90;;;;;;5057745;28;20579;-90
2023/05/31 07:47:31;;;;;;;22.20;19.45;;;19.30;99.90;;;;;;5068070;28;20210;-90
2023/05/31 07:50:05;;;;;;;14.35;9.95;;;19.20;99.90;;;;;;5076100;28;20230;-89
2023/05/31 07:52:41;;;;;;;11.25;9.55;;;19.20;99.90;;;;;;5075939;28;20227;-90
2023/05/31 07:55:12;;;;;;;7.70;5.97;;;19.20;99.90;;;;;;5076934;28;20196;-90
2023/05/31 07:57:43;;;;;;;4.45;3.63;;;19.10;99.90;;;;;;5075772;28;20665;-90
2023/05/31 08:00:16;;;;;;;5.57;3.45;;;19.10;99.90;;;;;;5077449;28;20196;-90
2023/05/31 08:02:49;;;;;;;5.07;3.70;;;19.00;99.90;;;;;;5075408;28;20222;-90
2023/05/31 08:05:25;;;;;;;4.20;3.47;;;19.00;99.90;;;;;;5075438;28;20200;-90
2023/05/31 08:08:00;;;;;;;5.72;3.72;;;19.00;99.90;;;;;;5077848;28;20282;-90
2023/05/31 08:10:32;;;;;;;5.70;3.50;;;19.00;99.90;;;;;;5075525;28;20200;-89
2023/05/31 08:13:06;;;;;;;4.75;3.20;;;19.00;99.90;;;;;;5087748;28;20212;-88
2023/05/31 08:15:38;;;;;;;7.95;3.00;;;19.00;99.90;;;;;;5085945;28;20199;-89
2023/05/31 08:18:09;;;;;;;17.88;12.68;;;19.00;99.90;;;;;;5077846;28;20215;-88
2023/05/31 08:20:45;;;;;;;13.70;10.55;;;18.90;99.90;;;;;;5075759;28;20206;-90
2023/05/31 08:23:22;;;;;;;6.85;4.20;;;19.00;99.90;;;;;;5076593;28;20275;-90
2023/05/31 08:25:54;;;;;;;6.97;3.53;;;19.00;99.90;;;;;;5074965;28;20195;-90
2023/05/31 08:28:26;;;;;;;7.68;3.88;;;18.90;99.90;;;;;;5075051;28;20192;-90
2023/05/31 08:30:58;;;;;;;7.70;4.32;;;18.90;99.90;;;;;;5075109;28;20231;-90
2023/05/31 08:33:32;;;;;;;6.05;4.00;;;18.90;99.90;;;;;;5074435;28;20227;-90
2023/05/31 08:36:08;;;;;;;5.60;3.40;;;18.90;99.90;;;;;;5075921;28;20202;-89
2023/05/31 08:38:40;;;;;;;4.70;3.47;;;18.80;99.90;;;;;;5075096;28;20200;-89
2023/05/31 08:41:11;;;;;;;6.18;2.85;;;18.80;99.90;;;;;;5074929;28;20198;-90
2023/05/31 08:43:43;;;;;;;6.10;3.00;;;18.70;99.90;;;;;;5074915;28;20202;-89
2023/05/31 08:46:17;;;;;;;5.38;3.28;;;18.60;99.90;;;;;;5075476;28;20203;-89
2023/05/31 08:48:56;;;;;;;13.18;6.90;;;18.60;99.90;;;;;;5074266;28;20206;-90
2023/05/31 08:51:31;;;;;;;10.73;6.65;;;18.60;99.90;;;;;;5075481;28;20186;-89
2023/05/31 08:54:04;;;;;;;9.20;5.57;;;18.70;99.90;;;;;;5083836;28;20215;-89
2023/05/31 08:56:38;;;;;;;7.95;5.55;;;18.70;99.90;;;;;;5086805;28;20200;-89
2023/05/31 08:59:17;;;;;;;9.90;5.68;;;18.70;99.90;;;;;;5081947;28;20200;-89
2023/05/31 09:01:50;;;;;;;9.05;6.07;;;18.70;99.90;;;;;;5074525;28;20204;-90
2023/05/31 09:04:24;;;;;;;12.60;7.50;;;18.70;99.90;;;;;;5074261;28;20249;-89
2023/05/31 09:07:00;;;;;;;9.77;6.53;;;18.70;99.90;;;;;;5075041;28;20224;-89
2023/05/31 09:09:31;;;;;;;9.35;5.10;;;18.80;99.90;;;;;;5074212;28;20222;-90
2023/05/31 09:12:03;;;;;;;6.90;5.00;;;18.70;99.90;;;;;;5072939;28;20210;-90
2023/05/31 09:14:36;;;;;;;11.05;5.28;;;18.70;99.90;;;;;;5075391;28;20207;-89
2023/05/31 09:17:09;;;;;;;6.03;5.15;;;18.70;99.90;;;;;;5075047;28;20199;-89
2023/05/31 09:19:52;;;;;;;9.10;4.78;;;18.70;99.90;;;;;;5075699;28;20271;-89
2023/05/31 09:22:27;;;;;;;8.27;5.00;;;18.70;99.90;;;;;;5074971;28;20218;-90
2023/05/31 09:25:03;;;;;;;10.98;6.60;;;18.70;99.90;;;;;;5075089;28;20199;-89
2023/05/31 09:27:40;;;;;;;11.23;6.70;;;18.60;99.90;;;;;;5075161;28;20210;-89
2023/05/31 09:30:14;;;;;;;11.27;6.88;;;18.60;99.90;;;;;;5074082;28;20262;-89
2023/05/31 09:32:54;;;;;;;9.25;6.03;;;18.60;99.90;;;;;;5074647;28;20231;-89
2023/05/31 09:35:27;;;;;;;10.45;6.25;;;18.60;99.90;;;;;;5078446;28;20612;-89
2023/05/31 09:38:07;;;;;;;8.95;5.20;;;18.60;99.90;;;;;;5077037;28;20203;-88
2023/05/31 09:40:39;;;;;;;8.15;4.50;;;18.60;99.90;;;;;;5078404;28;20196;-90
2023/05/31 09:43:10;;;;;;;9.43;5.15;;;18.50;99.90;;;;;;5076932;28;20220;-89
2023/05/31 09:45:42;;;;;;;5.97;4.90;;;18.50;99.90;;;;;;5074308;28;20206;-88
2023/05/31 09:48:15;;;;;;;8.07;4.82;;;18.50;99.90;;;;;;5072983;28;20200;-88
2023/05/31 09:50:48;;;;;;;8.77;4.85;;;18.40;99.90;;;;;;5073204;28;20196;-88
2023/05/31 09:53:27;;;;;;;8.75;4.97;;;18.40;99.90;;;;;;5073355;28;20224;-90
2023/05/31 09:55:59;;;;;;;11.00;5.43;;;18.40;99.90;;;;;;5074011;28;20572;-89
2023/05/31 09:58:33;;;;;;;7.43;4.90;;;18.40;99.90;;;;;;5074046;28;20249;-89
2023/05/31 10:01:05;;;;;;;8.85;4.72;;;18.30;99.90;;;;;;5072994;28;20701;-90
2023/05/31 10:03:38;;;;;;;8.35;4.95;;;18.30;99.90;;;;;;5077079;28;20202;-89
2023/05/31 10:06:09;;;;;;;8.27;5.80;;;18.20;99.90;;;;;;5076749;28;20222;-89
2023/05/31 10:08:46;;;;;;;8.80;6.35;;;18.20;99.90;;;;;;5076467;28;20228;-88
2023/05/31 10:11:19;;;;;;;9.95;7.25;;;18.10;99.90;;;;;;5076559;28;20198;-89
2023/05/31 10:13:55;;;;;;;11.15;7.70;;;18.10;99.90;;;;;;5076154;28;20228;-89
2023/05/31 10:16:28;;;;;;;11.07;8.10;;;18.10;99.90;;;;;;5075329;28;20195;-89
2023/05/31 10:19:04;;;;;;;12.48;7.82;;;18.10;99.90;;;;;;5076090;28;20191;-89
2023/05/31 10:21:39;;;;;;;10.30;6.78;;;18.10;99.90;;;;;;5076540;28;20207;-89
2023/05/31 10:24:17;;;;;;;11.40;6.53;;;18.00;99.90;;;;;;5077273;28;20610;-90
2023/05/31 10:27:00;;;;;;;18.92;14.10;;;18.00;99.90;;;;;;5075998;28;20720;-90
2023/05/31 10:29:35;;;;;;;16.60;14.82;;;18.00;99.90;;;;;;5076100;28;20235;-89
2023/05/31 10:32:14;;;;;;;12.23;10.93;;;18.00;99.90;;;;;;5077709;28;20206;-89
2023/05/31 10:34:45;;;;;;;15.65;10.45;;;18.00;99.90;;;;;;5077381;28;20200;-89
2023/05/31 10:37:19;;;;;;;35.28;30.33;;;17.90;99.90;;;;;;5076533;28;20195;-90
2023/05/31 10:39:57;;;;;;;26.35;23.65;;;17.90;99.90;;;;;;5076110;28;20590;-89
2023/05/31 10:42:39;;;;;;;21.40;18.25;;;17.90;99.90;;;;;;5075677;28;20200;-90
2023/05/31 10:45:17;;;;;;;16.45;14.50;;;17.90;99.90;;;;;;5076868;28;20627;-90
2023/05/31 10:47:57;;;;;;;10.90;9.25;;;17.90;99.90;;;;;;5076180;28;20655;-89
2023/05/31 10:50:28;;;;;;;6.72;5.60;;;17.90;99.90;;;;;;5071627;28;20196;-90
2023/05/31 10:53:13;;;;;;;7.80;5.60;;;17.80;99.90;;;;;;5077603;28;20252;-90
2023/05/31 10:56:05;;;;;;;8.10;4.90;;;17.80;99.90;;;;;;5062993;28;20204;-89
2023/05/31 10:58:43;;;;;;;6.20;4.03;;;17.80;99.90;;;;;;5065296;28;20282;-89
2023/05/31 11:01:15;;;;;;;4.90;4.22;;;17.80;99.90;;;;;;5076602;28;20188;-90
2023/05/31 11:03:51;;;;;;;6.45;4.97;;;17.80;99.90;;;;;;5075802;28;20200;-90
2023/05/31 11:06:28;;;;;;;6.97;4.70;;;17.80;99.90;;;;;;5076599;28;20203;-90
2023/05/31 11:09:05;;;;;;;6.28;4.63;;;17.80;99.90;;;;;;5080670;28;20223;-89
2023/05/31 11:11:53;;;;;;;5.40;3.75;;;17.80;99.90;;;;;;5098352;28;20208;-89
2023/05/31 11:14:34;;;;;;;5.95;3.78;;;17.80;99.90;;;;;;5097348;28;20271;-89
2023/05/31 11:17:23;;;;;;;7.93;4.50;;;17.70;99.90;;;;;;5076305;28;20200;-90
2023/05/31 11:19:57;;;;;;;5.20;3.63;;;17.80;99.90;;;;;;5078182;28;20200;-89
2023/05/31 11:22:30;;;;;;;5.57;3.42;;;17.80;99.90;;;;;;5077039;28;20260;-89
2023/05/31 11:25:02;;;;;;;5.47;4.07;;;17.80;99.90;;;;;;5076211;28;20197;-90
2023/05/31 11:27:48;;;;;;;8.77;5.28;;;17.80;99.90;;;;;;5076036;28;20204;-89
2023/05/31 11:30:20;;;;;;;10.20;4.60;;;17.80;99.90;;;;;;5075573;28;20239;-89
2023/05/31 11:33:18;;;;;;;4.85;3.30;;;17.70;99.90;;;;;;5085781;28;20196;-89
2023/05/31 11:35:51;;;;;;;4.93;2.70;;;17.70;99.90;;;;;;5080737;28;20294;-89
2023/05/31 11:38:23;;;;;;;3.50;2.50;;;17.70;99.90;;;;;;5077192;28;20218;-89
2023/05/31 11:40:55;;;;;;;3.03;2.22;;;17.80;99.90;;;;;;5077769;28;20192;-89
2023/05/31 11:43:30;;;;;;;5.47;2.88;;;17.80;99.90;;;;;;5074339;28;20208;-89
2023/05/31 11:46:03;;;;;;;5.50;3.90;;;17.80;99.90;;;;;;5074716;28;20574;-89
2023/05/31 11:48:46;;;;;;;4.90;3.20;;;17.80;99.90;;;;;;5060889;28;20226;-90
2023/05/31 11:51:19;;;;;;;4.32;2.95;;;17.80;99.90;;;;;;5054489;28;20196;-89
2023/05/31 11:53:53;;;;;;;10.40;4.65;;;17.80;99.90;;;;;;5054011;28;20230;-89
2023/05/31 11:56:36;;;;;;;7.15;4.03;;;17.80;99.90;;;;;;5054113;28;20220;-89
2023/05/31 11:59:10;;;;;;;4.85;3.22;;;17.70;99.90;;;;;;5053726;28;20247;-88
2023/05/31 12:01:43;;;;;;;4.28;2.60;;;17.70;99.90;;;;;;5055468;28;20192;-88
2023/05/31 12:04:15;;;;;;;3.88;2.88;;;17.60;99.90;;;;;;5055415;28;20247;-88
2023/05/31 12:06:46;;;;;;;2.90;2.30;;;17.70;99.90;;;;;;5065043;28;20199;-89
2023/05/31 12:09:18;;;;;;;4.30;3.10;;;17.70;99.90;;;;;;5082203;28;20204;-89
2023/05/31 12:11:50;;;;;;;6.20;4.00;;;17.60;99.90;;;;;;5085330;28;20214;-89
2023/05/31 12:14:28;;;;;;;6.00;3.00;;;17.60;99.90;;;;;;5077296;28;20224;-89
2023/05/31 12:17:03;;;;;;;3.72;2.65;;;17.60;99.90;;;;;;5066549;28;20197;-89
2023/05/31 12:19:35;;;;;;;4.75;2.40;;;17.60;99.90;;;;;;5055024;28;20196;-89
2023/05/31 12:22:08;;;;;;;3.50;2.30;;;17.60;99.90;;;;;;5056505;28;20200;-90
2023/05/31 12:24:51;;;;;;;4.40;2.60;;;17.60;99.90;;;;;;5073540;28;20200;-89
2023/05/31 12:27:22;;;;;;;4.35;2.50;;;17.60;99.90;;;;;;5074514;28;20724;-89
2023/05/31 12:30:02;;;;;;;2.58;2.05;;;17.60;99.90;;;;;;5073450;28;20231;-89
2023/05/31 12:32:33;;;;;;;2.83;1.92;;;17.60;99.90;;;;;;5073832;28;20675;-89
2023/05/31 12:35:13;;;;;;;4.05;2.15;;;17.60;99.90;;;;;;5073349;28;20220;-89
2023/05/31 12:37:44;;;;;;;4.35;2.55;;;17.60;99.90;;;;;;5074043;28;20207;-90
2023/05/31 12:40:19;;;;;;;4.07;2.28;;;17.50;99.90;;;;;;5082170;28;20207;-88
2023/05/31 12:42:51;;;;;;;2.72;1.90;;;17.50;99.90;;;;;;5081025;28;20267;-88
2023/05/31 12:45:26;;;;;;;3.35;2.17;;;17.50;99.90;;;;;;5074354;28;20576;-89
2023/05/31 12:48:01;;;;;;;3.10;2.17;;;17.50;99.90;;;;;;5072592;28;20207;-89
2023/05/31 12:50:33;;;;;;;3.78;2.50;;;17.50;99.90;;;;;;5076206;28;20278;-90
2023/05/31 12:53:08;;;;;;;4.55;3.17;;;17.40;99.90;;;;;;5075597;28;20188;-89
2023/05/31 12:55:43;;;;;;;4.45;3.42;;;17.40;99.90;;;;;;5073668;28;20191;-89
2023/05/31 12:58:17;;;;;;;6.68;2.75;;;17.40;99.90;;;;;;5075324;28;20203;-89
2023/05/31 13:00:55;;;;;;;4.03;2.33;;;17.40;99.90;;;;;;5075513;28;20207;-90
2023/05/31 13:03:27;;;;;;;4.15;2.42;;;17.50;99.90;;;;;;5074910;28;20211;-90
2023/05/31 13:05:58;;;;;;;3.53;2.50;;;17.50;99.90;;;;;;5076869;28;20210;-90
2023/05/31 13:08:35;;;;;;;7.60;2.70;;;17.50;99.90;;;;;;5077084;28;20722;-90
2023/05/31 13:11:07;;;;;;;3.83;2.53;;;17.50;99.90;;;;;;5080232;28;20399;-88
2023/05/31 13:13:40;;;;;;;3.80;2.30;;;17.40;99.90;;;;;;5076324;28;20216;-89
2023/05/31 13:16:14;;;;;;;3.58;2.30;;;17.40;99.90;;;;;;5056970;28;20211;-89
2023/05/31 13:18:46;;;;;;;2.72;1.95;;;17.40;99.90;;;;;;5058004;28;20195;-89
2023/05/31 13:21:19;;;;;;;4.15;2.00;;;17.40;99.90;;;;;;5056598;28;20193;-89